sensor_id;sensor_type;location;lat;lon;timestamp;P1;durP1;ratioP1;P2;durP2;ratioP2
61487;SDS011;47351;53.326;-6.298;2024-03-07T00:02:05;15.40;;;2.40;;
61487;SDS011;47351;53.326;-6.298;2024-03-07T00:04:56;15.30;;;2.50;;
61487;SDS011;47351;53.326;-6.298;2024-03-07T00:07:59;15.60;;;2.50;;
61487;SDS011;47351;53.326;-6.298;2024-03-07T00:10:49;11.70;;;2.30;;
61487;SDS011;47351;53.326;-6.298;2024-03-07T00:13:42;15.60;;;2.60;;
61487;SDS011;47351;53.326;-6.298;2024-03-07T00:16:34;12.60;;;2.40;;
61487;SDS011;47351;53.326;-6.298;2024-03-07T00:19:26;16.50;;;2.50;;
61487;SDS011;47351;53.326;-6.298;2024-03-07T00:22:16;14.00;;;2.40;;
61487;SDS011;47351;53.326;-6.298;2024-03-07T00:25:09;16.50;;;2.50;;
61487;SDS011;47351;53.326;-6.298;2024-03-07T00:28:02;15.80;;;2.40;;
61487;SDS011;47351;53.326;-6.298;2024-03-07T00:31:15;19.50;;;2.90;;
61487;SDS011;47351;53.326;-6.298;2024-03-07T00:34:05;16.00;;;3.30;;
61487;SDS011;47351;53.326;-6.298;2024-03-07T00:37:07;19.50;;;2.40;;
61487;SDS011;47351;53.326;-6.298;2024-03-07T00:39:57;15.40;;;2.40;;
61487;SDS011;47351;53.326;-6.298;2024-03-07T00:42:47;14.10;;;3.00;;
61487;SDS011;47351;53.326;-6.298;2024-03-07T00:45:39;15.20;;;2.20;;
61487;SDS011;47351;53.326;-6.298;2024-03-07T00:48:28;15.50;;;2.30;;
61487;SDS011;47351;53.326;-6.298;2024-03-07T00:51:19;18.80;;;2.60;;
61487;SDS011;47351;53.326;-6.298;2024-03-07T00:54:09;19.50;;;3.00;;
61487;SDS011;47351;53.326;-6.298;2024-03-07T00:57:04;16.10;;;2.10;;
61487;SDS011;47351;53.326;-6.298;2024-03-07T00:59:56;18.90;;;2.40;;
61487;SDS011;47351;53.326;-6.298;2024-03-07T01:02:47;12.70;;;2.50;;
61487;SDS011;47351;53.326;-6.298;2024-03-07T01:05:37;11.60;;;2.10;;
61487;SDS011;47351;53.326;-6.298;2024-03-07T01:08:33;14.10;;;2.40;;
61487;SDS011;47351;53.326;-6.298;2024-03-07T01:11:24;12.80;;;2.50;;
61487;SDS011;47351;53.326;-6.298;2024-03-07T01:14:14;16.00;;;2.20;;
61487;SDS011;47351;53.326;-6.298;2024-03-07T01:17:05;14.70;;;2.60;;
61487;SDS011;47351;53.326;-6.298;2024-03-07T01:19:59;15.80;;;2.80;;
61487;SDS011;47351;53.326;-6.298;2024-03-07T01:22:51;21.50;;;2.90;;
61487;SDS011;47351;53.326;-6.298;2024-03-07T01:25:41;21.40;;;2.90;;
61487;SDS011;47351;53.326;-6.298;2024-03-07T01:28:51;14.10;;;2.20;;
61487;SDS011;47351;53.326;-6.298;2024-03-07T01:31:46;11.10;;;2.20;;
61487;SDS011;47351;53.326;-6.298;2024-03-07T01:34:37;14.50;;;2.60;;
61487;SDS011;47351;53.326;-6.298;2024-03-07T01:37:27;13.70;;;2.30;;
61487;SDS011;47351;53.326;-6.298;2024-03-07T01:40:37;18.30;;;2.60;;
61487;SDS011;47351;53.326;-6.298;2024-03-07T01:43:27;13.40;;;2.20;;
61487;SDS011;47351;53.326;-6.298;2024-03-07T01:46:32;15.70;;;2.20;;
61487;SDS011;47351;53.326;-6.298;2024-03-07T01:49:42;16.30;;;3.20;;
61487;SDS011;47351;53.326;-6.298;2024-03-07T01:52:36;11.70;;;2.60;;
61487;SDS011;47351;53.326;-6.298;2024-03-07T01:55:32;12.40;;;2.30;;
61487;SDS011;47351;53.326;-6.298;2024-03-07T01:58:22;15.10;;;2.90;;
61487;SDS011;47351;53.326;-6.298;2024-03-07T02:01:24;14.70;;;2.50;;
61487;SDS011;47351;53.326;-6.298;2024-03-07T02:04:28;12.50;;;2.40;;
61487;SDS011;47351;53.326;-6.298;2024-03-07T02:07:26;16.00;;;2.40;;
61487;SDS011;47351;53.326;-6.298;2024-03-07T02:10:23;20.20;;;3.00;;
61487;SDS011;47351;53.326;-6.298;2024-03-07T02:13:16;12.20;;;2.50;;
61487;SDS011;47351;53.326;-6.298;2024-03-07T02:16:06;18.30;;;3.20;;
61487;SDS011;47351;53.326;-6.298;2024-03-07T02:19:07;15.20;;;2.90;;
61487;SDS011;47351;53.326;-6.298;2024-03-07T02:22:00;18.00;;;3.20;;
61487;SDS011;47351;53.326;-6.298;2024-03-07T02:25:03;15.60;;;2.70;;
61487;SDS011;47351;53.326;-6.298;2024-03-07T02:27:59;17.30;;;2.50;;
61487;SDS011;47351;53.326;-6.298;2024-03-07T02:30:50;17.30;;;2.60;;
61487;SDS011;47351;53.326;-6.298;2024-03-07T02:33:43;18.90;;;3.00;;
61487;SDS011;47351;53.326;-6.298;2024-03-07T02:36:36;15.70;;;2.70;;
61487;SDS011;47351;53.326;-6.298;2024-03-07T02:39:46;17.90;;;3.30;;
61487;SDS011;47351;53.326;-6.298;2024-03-07T02:42:57;13.30;;;2.80;;
61487;SDS011;47351;53.326;-6.298;2024-03-07T02:46:07;18.00;;;2.80;;
61487;SDS011;47351;53.326;-6.298;2024-03-07T02:49:14;18.30;;;2.90;;
61487;SDS011;47351;53.326;-6.298;2024-03-07T02:52:11;14.00;;;3.10;;
61487;SDS011;47351;53.326;-6.298;2024-03-07T02:55:07;14.00;;;3.30;;
61487;SDS011;47351;53.326;-6.298;2024-03-07T02:58:07;21.40;;;3.50;;
61487;SDS011;47351;53.326;-6.298;2024-03-07T03:01:08;20.30;;;2.80;;
61487;SDS011;47351;53.326;-6.298;2024-03-07T03:07:21;15.80;;;2.70;;
61487;SDS011;47351;53.326;-6.298;2024-03-07T03:10:31;17.20;;;3.30;;
61487;SDS011;47351;53.326;-6.298;2024-03-07T03:13:29;13.70;;;3.30;;
61487;SDS011;47351;53.326;-6.298;2024-03-07T03:16:21;12.10;;;3.10;;
61487;SDS011;47351;53.326;-6.298;2024-03-07T03:19:31;19.20;;;2.90;;
61487;SDS011;47351;53.326;-6.298;2024-03-07T03:22:34;15.00;;;2.90;;
61487;SDS011;47351;53.326;-6.298;2024-03-07T03:25:43;21.40;;;4.20;;
61487;SDS011;47351;53.326;-6.298;2024-03-07T03:28:46;17.40;;;3.30;;
61487;SDS011;47351;53.326;-6.298;2024-03-07T03:31:39;19.10;;;3.10;;
61487;SDS011;47351;53.326;-6.298;2024-03-07T03:34:29;12.00;;;3.20;;
61487;SDS011;47351;53.326;-6.298;2024-03-07T03:37:22;14.50;;;2.70;;
61487;SDS011;47351;53.326;-6.298;2024-03-07T03:40:12;12.60;;;3.10;;
61487;SDS011;47351;53.326;-6.298;2024-03-07T03:43:02;14.10;;;3.20;;
61487;SDS011;47351;53.326;-6.298;2024-03-07T03:46:02;12.90;;;3.10;;
61487;SDS011;47351;53.326;-6.298;2024-03-07T03:48:52;15.50;;;3.20;;
61487;SDS011;47351;53.326;-6.298;2024-03-07T03:51:45;20.60;;;3.60;;
61487;SDS011;47351;53.326;-6.298;2024-03-07T03:54:49;17.30;;;3.00;;
61487;SDS011;47351;53.326;-6.298;2024-03-07T03:57:48;11.50;;;2.60;;
61487;SDS011;47351;53.326;-6.298;2024-03-07T04:00:41;17.70;;;3.30;;
61487;SDS011;47351;53.326;-6.298;2024-03-07T04:03:31;19.10;;;2.80;;
61487;SDS011;47351;53.326;-6.298;2024-03-07T04:06:21;18.30;;;3.20;;
61487;SDS011;47351;53.326;-6.298;2024-03-07T04:09:22;20.40;;;3.70;;
61487;SDS011;47351;53.326;-6.298;2024-03-07T04:12:32;14.20;;;2.40;;
61487;SDS011;47351;53.326;-6.298;2024-03-07T04:15:22;16.80;;;3.20;;
61487;SDS011;47351;53.326;-6.298;2024-03-07T04:18:26;17.10;;;3.30;;
61487;SDS011;47351;53.326;-6.298;2024-03-07T04:21:17;24.10;;;3.70;;
61487;SDS011;47351;53.326;-6.298;2024-03-07T04:24:15;18.00;;;3.00;;
61487;SDS011;47351;53.326;-6.298;2024-03-07T04:27:08;14.80;;;3.00;;
61487;SDS011;47351;53.326;-6.298;2024-03-07T04:29:58;14.00;;;2.80;;
61487;SDS011;47351;53.326;-6.298;2024-03-07T04:32:51;14.10;;;3.50;;
61487;SDS011;47351;53.326;-6.298;2024-03-07T04:36:01;10.40;;;2.60;;
61487;SDS011;47351;53.326;-6.298;2024-03-07T04:38:52;21.40;;;3.00;;
61487;SDS011;47351;53.326;-6.298;2024-03-07T04:41:45;17.70;;;3.50;;
61487;SDS011;47351;53.326;-6.298;2024-03-07T04:44:45;17.20;;;3.50;;
61487;SDS011;47351;53.326;-6.298;2024-03-07T04:47:55;17.10;;;3.30;;
61487;SDS011;47351;53.326;-6.298;2024-03-07T04:50:48;17.70;;;3.90;;
61487;SDS011;47351;53.326;-6.298;2024-03-07T04:53:58;15.80;;;3.30;;
61487;SDS011;47351;53.326;-6.298;2024-03-07T04:56:51;15.00;;;3.10;;
61487;SDS011;47351;53.326;-6.298;2024-03-07T04:59:41;15.20;;;2.90;;
61487;SDS011;47351;53.326;-6.298;2024-03-07T05:02:43;14.70;;;3.20;;
61487;SDS011;47351;53.326;-6.298;2024-03-07T05:05:37;18.20;;;3.10;;
61487;SDS011;47351;53.326;-6.298;2024-03-07T05:08:31;16.30;;;3.00;;
61487;SDS011;47351;53.326;-6.298;2024-03-07T05:11:21;15.80;;;3.00;;
61487;SDS011;47351;53.326;-6.298;2024-03-07T05:14:11;16.30;;;2.70;;
61487;SDS011;47351;53.326;-6.298;2024-03-07T05:17:11;13.50;;;3.10;;
61487;SDS011;47351;53.326;-6.298;2024-03-07T05:20:02;15.70;;;2.80;;
61487;SDS011;47351;53.326;-6.298;2024-03-07T05:22:58;14.70;;;3.00;;
61487;SDS011;47351;53.326;-6.298;2024-03-07T05:25:47;17.70;;;3.40;;
61487;SDS011;47351;53.326;-6.298;2024-03-07T05:28:40;10.90;;;2.40;;
61487;SDS011;47351;53.326;-6.298;2024-03-07T05:31:50;13.10;;;3.90;;
61487;SDS011;47351;53.326;-6.298;2024-03-07T05:37:49;10.20;;;2.60;;
61487;SDS011;47351;53.326;-6.298;2024-03-07T05:40:50;15.70;;;3.30;;
61487;SDS011;47351;53.326;-6.298;2024-03-07T05:43:40;16.70;;;3.30;;
61487;SDS011;47351;53.326;-6.298;2024-03-07T05:46:32;15.20;;;3.40;;
61487;SDS011;47351;53.326;-6.298;2024-03-07T05:49:23;17.30;;;3.10;;
61487;SDS011;47351;53.326;-6.298;2024-03-07T05:52:33;15.70;;;3.20;;
61487;SDS011;47351;53.326;-6.298;2024-03-07T05:55:23;19.90;;;3.30;;
61487;SDS011;47351;53.326;-6.298;2024-03-07T05:58:33;13.30;;;3.30;;
61487;SDS011;47351;53.326;-6.298;2024-03-07T06:01:26;20.40;;;3.60;;
61487;SDS011;47351;53.326;-6.298;2024-03-07T06:04:15;13.80;;;2.90;;
61487;SDS011;47351;53.326;-6.298;2024-03-07T06:07:25;15.40;;;3.40;;
61487;SDS011;47351;53.326;-6.298;2024-03-07T06:10:18;15.70;;;3.50;;
61487;SDS011;47351;53.326;-6.298;2024-03-07T06:13:14;13.80;;;3.40;;
61487;SDS011;47351;53.326;-6.298;2024-03-07T06:16:05;14.80;;;3.40;;
61487;SDS011;47351;53.326;-6.298;2024-03-07T06:18:55;14.60;;;3.60;;
61487;SDS011;47351;53.326;-6.298;2024-03-07T06:22:05;16.30;;;3.40;;
61487;SDS011;47351;53.326;-6.298;2024-03-07T06:25:01;15.60;;;3.50;;
61487;SDS011;47351;53.326;-6.298;2024-03-07T06:27:54;15.60;;;3.40;;
61487;SDS011;47351;53.326;-6.298;2024-03-07T06:30:44;16.20;;;3.60;;
61487;SDS011;47351;53.326;-6.298;2024-03-07T06:33:37;11.40;;;3.60;;
61487;SDS011;47351;53.326;-6.298;2024-03-07T06:36:37;14.30;;;3.60;;
61487;SDS011;47351;53.326;-6.298;2024-03-07T06:39:28;13.70;;;3.60;;
61487;SDS011;47351;53.326;-6.298;2024-03-07T06:42:38;12.00;;;3.50;;
61487;SDS011;47351;53.326;-6.298;2024-03-07T06:45:48;12.60;;;3.60;;
61487;SDS011;47351;53.326;-6.298;2024-03-07T06:48:48;14.40;;;3.90;;
61487;SDS011;47351;53.326;-6.298;2024-03-07T06:51:59;14.60;;;4.00;;
61487;SDS011;47351;53.326;-6.298;2024-03-07T06:54:52;12.70;;;4.00;;
61487;SDS011;47351;53.326;-6.298;2024-03-07T06:58:02;13.90;;;3.70;;
61487;SDS011;47351;53.326;-6.298;2024-03-07T07:01:03;16.90;;;4.40;;
61487;SDS011;47351;53.326;-6.298;2024-03-07T07:04:17;16.90;;;4.00;;
61487;SDS011;47351;53.326;-6.298;2024-03-07T07:07:17;18.20;;;4.20;;
61487;SDS011;47351;53.326;-6.298;2024-03-07T07:10:20;15.00;;;4.60;;
61487;SDS011;47351;53.326;-6.298;2024-03-07T07:13:33;15.20;;;4.20;;
61487;SDS011;47351;53.326;-6.298;2024-03-07T07:16:28;18.10;;;4.30;;
61487;SDS011;47351;53.326;-6.298;2024-03-07T07:19:39;13.00;;;4.00;;
61487;SDS011;47351;53.326;-6.298;2024-03-07T07:22:49;12.50;;;4.10;;
61487;SDS011;47351;53.326;-6.298;2024-03-07T07:26:01;13.30;;;4.20;;
61487;SDS011;47351;53.326;-6.298;2024-03-07T07:29:06;14.80;;;3.80;;
61487;SDS011;47351;53.326;-6.298;2024-03-07T07:32:16;15.40;;;4.60;;
61487;SDS011;47351;53.326;-6.298;2024-03-07T07:35:27;19.90;;;4.30;;
61487;SDS011;47351;53.326;-6.298;2024-03-07T07:38:37;18.80;;;4.70;;
61487;SDS011;47351;53.326;-6.298;2024-03-07T07:41:48;10.00;;;4.10;;
61487;SDS011;47351;53.326;-6.298;2024-03-07T07:44:41;14.50;;;4.30;;
61487;SDS011;47351;53.326;-6.298;2024-03-07T07:47:35;20.00;;;5.30;;
61487;SDS011;47351;53.326;-6.298;2024-03-07T07:53:54;14.70;;;4.50;;
61487;SDS011;47351;53.326;-6.298;2024-03-07T07:57:05;13.10;;;4.90;;
61487;SDS011;47351;53.326;-6.298;2024-03-07T08:00:15;12.20;;;4.50;;
61487;SDS011;47351;53.326;-6.298;2024-03-07T08:03:29;13.80;;;5.40;;
61487;SDS011;47351;53.326;-6.298;2024-03-07T08:06:33;12.80;;;5.20;;
61487;SDS011;47351;53.326;-6.298;2024-03-07T08:09:44;18.00;;;5.90;;
61487;SDS011;47351;53.326;-6.298;2024-03-07T08:12:33;13.20;;;5.80;;
61487;SDS011;47351;53.326;-6.298;2024-03-07T08:15:27;12.90;;;5.40;;
61487;SDS011;47351;53.326;-6.298;2024-03-07T08:18:29;16.30;;;5.90;;
61487;SDS011;47351;53.326;-6.298;2024-03-07T08:21:40;15.10;;;6.00;;
61487;SDS011;47351;53.326;-6.298;2024-03-07T08:24:30;14.80;;;6.60;;
61487;SDS011;47351;53.326;-6.298;2024-03-07T08:27:28;14.20;;;6.40;;
61487;SDS011;47351;53.326;-6.298;2024-03-07T08:30:18;18.00;;;7.30;;
61487;SDS011;47351;53.326;-6.298;2024-03-07T08:33:28;14.80;;;6.10;;
61487;SDS011;47351;53.326;-6.298;2024-03-07T08:36:20;15.00;;;6.50;;
61487;SDS011;47351;53.326;-6.298;2024-03-07T08:39:13;16.20;;;6.00;;
61487;SDS011;47351;53.326;-6.298;2024-03-07T08:42:06;12.40;;;5.90;;
61487;SDS011;47351;53.326;-6.298;2024-03-07T08:44:56;13.20;;;5.60;;
61487;SDS011;47351;53.326;-6.298;2024-03-07T08:47:59;14.80;;;6.70;;
61487;SDS011;47351;53.326;-6.298;2024-03-07T08:50:54;13.40;;;5.90;;
61487;SDS011;47351;53.326;-6.298;2024-03-07T08:54:04;10.10;;;6.20;;
61487;SDS011;47351;53.326;-6.298;2024-03-07T08:56:55;11.30;;;5.50;;
61487;SDS011;47351;53.326;-6.298;2024-03-07T08:59:45;11.50;;;5.50;;
61487;SDS011;47351;53.326;-6.298;2024-03-07T09:02:45;12.70;;;5.40;;
61487;SDS011;47351;53.326;-6.298;2024-03-07T09:05:41;11.70;;;5.90;;
61487;SDS011;47351;53.326;-6.298;2024-03-07T09:08:43;14.60;;;6.30;;
61487;SDS011;47351;53.326;-6.298;2024-03-07T09:14:24;12.80;;;5.40;;
61487;SDS011;47351;53.326;-6.298;2024-03-07T09:17:28;13.00;;;5.20;;
61487;SDS011;47351;53.326;-6.298;2024-03-07T09:20:38;13.60;;;5.50;;
61487;SDS011;47351;53.326;-6.298;2024-03-07T09:23:31;11.40;;;4.90;;
61487;SDS011;47351;53.326;-6.298;2024-03-07T09:26:42;13.80;;;5.60;;
61487;SDS011;47351;53.326;-6.298;2024-03-07T09:29:45;15.10;;;7.70;;
61487;SDS011;47351;53.326;-6.298;2024-03-07T09:32:45;15.70;;;5.30;;
61487;SDS011;47351;53.326;-6.298;2024-03-07T09:35:57;13.30;;;5.50;;
61487;SDS011;47351;53.326;-6.298;2024-03-07T09:38:49;12.00;;;5.50;;
61487;SDS011;47351;53.326;-6.298;2024-03-07T09:41:59;11.60;;;5.60;;
61487;SDS011;47351;53.326;-6.298;2024-03-07T09:44:53;13.30;;;5.70;;
61487;SDS011;47351;53.326;-6.298;2024-03-07T09:48:05;14.20;;;5.70;;
61487;SDS011;47351;53.326;-6.298;2024-03-07T09:51:10;15.20;;;5.50;;
61487;SDS011;47351;53.326;-6.298;2024-03-07T09:54:17;13.30;;;5.80;;
61487;SDS011;47351;53.326;-6.298;2024-03-07T09:57:09;17.10;;;6.20;;
61487;SDS011;47351;53.326;-6.298;2024-03-07T10:00:01;11.00;;;5.40;;
61487;SDS011;47351;53.326;-6.298;2024-03-07T10:03:02;12.90;;;6.40;;
61487;SDS011;47351;53.326;-6.298;2024-03-07T10:05:59;12.50;;;6.30;;
61487;SDS011;47351;53.326;-6.298;2024-03-07T10:09:01;11.60;;;6.50;;
61487;SDS011;47351;53.326;-6.298;2024-03-07T10:11:58;16.20;;;6.60;;
61487;SDS011;47351;53.326;-6.298;2024-03-07T10:15:02;13.80;;;7.10;;
61487;SDS011;47351;53.326;-6.298;2024-03-07T10:17:53;14.40;;;6.90;;
61487;SDS011;47351;53.326;-6.298;2024-03-07T10:20:58;13.40;;;7.10;;
61487;SDS011;47351;53.326;-6.298;2024-03-07T10:24:06;16.10;;;7.20;;
61487;SDS011;47351;53.326;-6.298;2024-03-07T10:27:03;14.40;;;6.90;;
61487;SDS011;47351;53.326;-6.298;2024-03-07T10:30:14;14.70;;;7.00;;
61487;SDS011;47351;53.326;-6.298;2024-03-07T10:33:16;14.20;;;7.80;;
61487;SDS011;47351;53.326;-6.298;2024-03-07T10:36:19;13.40;;;6.90;;
61487;SDS011;47351;53.326;-6.298;2024-03-07T10:39:21;16.10;;;7.20;;
61487;SDS011;47351;53.326;-6.298;2024-03-07T10:42:14;14.70;;;7.50;;
61487;SDS011;47351;53.326;-6.298;2024-03-07T10:45:25;13.40;;;6.70;;
61487;SDS011;47351;53.326;-6.298;2024-03-07T10:48:24;15.50;;;7.10;;
61487;SDS011;47351;53.326;-6.298;2024-03-07T10:51:32;15.10;;;7.00;;
61487;SDS011;47351;53.326;-6.298;2024-03-07T10:54:32;27.40;;;13.70;;
61487;SDS011;47351;53.326;-6.298;2024-03-07T10:57:49;11.80;;;6.90;;
61487;SDS011;47351;53.326;-6.298;2024-03-07T11:00:52;12.70;;;6.70;;
61487;SDS011;47351;53.326;-6.298;2024-03-07T11:03:49;10.50;;;5.40;;
61487;SDS011;47351;53.326;-6.298;2024-03-07T11:06:43;11.60;;;6.50;;
61487;SDS011;47351;53.326;-6.298;2024-03-07T11:09:36;13.10;;;6.60;;
61487;SDS011;47351;53.326;-6.298;2024-03-07T11:12:34;13.80;;;7.00;;
61487;SDS011;47351;53.326;-6.298;2024-03-07T11:15:38;15.40;;;8.40;;
61487;SDS011;47351;53.326;-6.298;2024-03-07T11:18:30;15.60;;;8.00;;
61487;SDS011;47351;53.326;-6.298;2024-03-07T11:21:42;15.10;;;7.30;;
61487;SDS011;47351;53.326;-6.298;2024-03-07T11:25:00;13.10;;;7.70;;
61487;SDS011;47351;53.326;-6.298;2024-03-07T11:28:03;14.80;;;8.00;;
61487;SDS011;47351;53.326;-6.298;2024-03-07T11:31:08;16.30;;;8.20;;
61487;SDS011;47351;53.326;-6.298;2024-03-07T11:34:21;17.00;;;7.90;;
61487;SDS011;47351;53.326;-6.298;2024-03-07T11:37:38;19.10;;;8.00;;
61487;SDS011;47351;53.326;-6.298;2024-03-07T11:40:43;16.40;;;8.10;;
61487;SDS011;47351;53.326;-6.298;2024-03-07T11:43:36;12.60;;;7.60;;
61487;SDS011;47351;53.326;-6.298;2024-03-07T11:46:46;15.80;;;7.90;;
61487;SDS011;47351;53.326;-6.298;2024-03-07T11:49:56;18.70;;;8.40;;
61487;SDS011;47351;53.326;-6.298;2024-03-07T11:53:07;14.80;;;7.80;;
61487;SDS011;47351;53.326;-6.298;2024-03-07T11:56:05;17.10;;;6.90;;
61487;SDS011;47351;53.326;-6.298;2024-03-07T11:59:00;15.70;;;7.80;;
61487;SDS011;47351;53.326;-6.298;2024-03-07T12:02:13;15.30;;;7.40;;
61487;SDS011;47351;53.326;-6.298;2024-03-07T12:05:24;17.20;;;7.40;;
61487;SDS011;47351;53.326;-6.298;2024-03-07T12:08:15;19.20;;;7.40;;
61487;SDS011;47351;53.326;-6.298;2024-03-07T12:11:25;14.70;;;7.60;;
61487;SDS011;47351;53.326;-6.298;2024-03-07T12:14:34;12.80;;;7.60;;
61487;SDS011;47351;53.326;-6.298;2024-03-07T12:17:34;17.60;;;8.10;;
61487;SDS011;47351;53.326;-6.298;2024-03-07T12:20:41;18.70;;;7.90;;
61487;SDS011;47351;53.326;-6.298;2024-03-07T12:23:45;15.00;;;7.80;;
61487;SDS011;47351;53.326;-6.298;2024-03-07T12:26:38;14.30;;;7.70;;
61487;SDS011;47351;53.326;-6.298;2024-03-07T12:29:48;15.70;;;8.10;;
61487;SDS011;47351;53.326;-6.298;2024-03-07T12:32:47;14.80;;;8.80;;
61487;SDS011;47351;53.326;-6.298;2024-03-07T12:35:48;18.60;;;8.20;;
61487;SDS011;47351;53.326;-6.298;2024-03-07T12:39:00;15.70;;;7.70;;
61487;SDS011;47351;53.326;-6.298;2024-03-07T12:41:57;17.80;;;8.10;;
61487;SDS011;47351;53.326;-6.298;2024-03-07T12:44:58;15.00;;;6.60;;
61487;SDS011;47351;53.326;-6.298;2024-03-07T12:48:09;14.00;;;7.70;;
61487;SDS011;47351;53.326;-6.298;2024-03-07T12:51:02;15.10;;;6.80;;
61487;SDS011;47351;53.326;-6.298;2024-03-07T12:53:53;17.40;;;8.40;;
61487;SDS011;47351;53.326;-6.298;2024-03-07T12:56:43;14.20;;;7.80;;
61487;SDS011;47351;53.326;-6.298;2024-03-07T12:59:38;15.40;;;8.00;;
61487;SDS011;47351;53.326;-6.298;2024-03-07T13:02:33;14.50;;;8.30;;
61487;SDS011;47351;53.326;-6.298;2024-03-07T13:05:41;13.10;;;8.20;;
61487;SDS011;47351;53.326;-6.298;2024-03-07T13:08:49;15.00;;;8.10;;
61487;SDS011;47351;53.326;-6.298;2024-03-07T13:11:51;11.60;;;6.40;;
61487;SDS011;47351;53.326;-6.298;2024-03-07T13:15:02;12.80;;;8.70;;
61487;SDS011;47351;53.326;-6.298;2024-03-07T13:18:08;20.10;;;10.90;;
61487;SDS011;47351;53.326;-6.298;2024-03-07T13:21:04;16.50;;;9.70;;
61487;SDS011;47351;53.326;-6.298;2024-03-07T13:23:59;17.30;;;9.20;;
61487;SDS011;47351;53.326;-6.298;2024-03-07T13:27:09;16.80;;;9.60;;
61487;SDS011;47351;53.326;-6.298;2024-03-07T13:30:19;17.00;;;9.30;;
61487;SDS011;47351;53.326;-6.298;2024-03-07T13:33:31;19.00;;;10.00;;
61487;SDS011;47351;53.326;-6.298;2024-03-07T13:36:43;16.40;;;9.50;;
61487;SDS011;47351;53.326;-6.298;2024-03-07T13:39:36;16.30;;;9.00;;
61487;SDS011;47351;53.326;-6.298;2024-03-07T13:42:39;22.30;;;9.40;;
61487;SDS011;47351;53.326;-6.298;2024-03-07T13:45:49;16.90;;;9.20;;
61487;SDS011;47351;53.326;-6.298;2024-03-07T13:49:00;17.30;;;9.00;;
61487;SDS011;47351;53.326;-6.298;2024-03-07T13:52:08;17.70;;;9.70;;
61487;SDS011;47351;53.326;-6.298;2024-03-07T13:55:19;18.20;;;9.70;;
61487;SDS011;47351;53.326;-6.298;2024-03-07T13:58:12;16.90;;;9.20;;
61487;SDS011;47351;53.326;-6.298;2024-03-07T14:01:20;15.10;;;9.10;;
61487;SDS011;47351;53.326;-6.298;2024-03-07T14:08:22;20.90;;;10.40;;
61487;SDS011;47351;53.326;-6.298;2024-03-07T14:11:37;15.90;;;9.00;;
61487;SDS011;47351;53.326;-6.298;2024-03-07T14:18:52;16.20;;;9.60;;
61487;SDS011;47351;53.326;-6.298;2024-03-07T14:22:23;20.40;;;9.60;;
61487;SDS011;47351;53.326;-6.298;2024-03-07T14:29:09;16.60;;;10.60;;
61487;SDS011;47351;53.326;-6.298;2024-03-07T14:32:08;18.20;;;10.10;;
61487;SDS011;47351;53.326;-6.298;2024-03-07T14:35:14;16.80;;;9.50;;
61487;SDS011;47351;53.326;-6.298;2024-03-07T14:38:26;18.90;;;10.60;;
61487;SDS011;47351;53.326;-6.298;2024-03-07T14:41:40;18.10;;;10.70;;
61487;SDS011;47351;53.326;-6.298;2024-03-07T14:44:36;31.30;;;11.60;;
61487;SDS011;47351;53.326;-6.298;2024-03-07T14:47:33;20.00;;;11.20;;
61487;SDS011;47351;53.326;-6.298;2024-03-07T14:50:35;19.60;;;11.40;;
61487;SDS011;47351;53.326;-6.298;2024-03-07T14:53:46;18.70;;;10.80;;
61487;SDS011;47351;53.326;-6.298;2024-03-07T14:56:47;17.20;;;11.90;;
61487;SDS011;47351;53.326;-6.298;2024-03-07T14:59:58;17.80;;;10.90;;
61487;SDS011;47351;53.326;-6.298;2024-03-07T15:03:08;19.60;;;11.30;;
61487;SDS011;47351;53.326;-6.298;2024-03-07T15:06:01;17.70;;;11.60;;
61487;SDS011;47351;53.326;-6.298;2024-03-07T15:09:05;19.30;;;10.80;;
61487;SDS011;47351;53.326;-6.298;2024-03-07T15:11:57;20.90;;;12.30;;
61487;SDS011;47351;53.326;-6.298;2024-03-07T15:15:08;21.10;;;11.60;;
61487;SDS011;47351;53.326;-6.298;2024-03-07T15:18:05;20.00;;;12.30;;
61487;SDS011;47351;53.326;-6.298;2024-03-07T15:21:10;21.00;;;13.20;;
61487;SDS011;47351;53.326;-6.298;2024-03-07T15:24:26;19.50;;;11.50;;
61487;SDS011;47351;53.326;-6.298;2024-03-07T15:27:36;19.20;;;12.10;;
61487;SDS011;47351;53.326;-6.298;2024-03-07T15:30:29;18.80;;;10.60;;
61487;SDS011;47351;53.326;-6.298;2024-03-07T15:33:36;20.50;;;10.80;;
61487;SDS011;47351;53.326;-6.298;2024-03-07T15:36:26;19.60;;;11.60;;
61487;SDS011;47351;53.326;-6.298;2024-03-07T15:39:19;21.40;;;12.20;;
61487;SDS011;47351;53.326;-6.298;2024-03-07T15:42:16;18.20;;;11.00;;
61487;SDS011;47351;53.326;-6.298;2024-03-07T15:45:17;21.20;;;11.90;;
61487;SDS011;47351;53.326;-6.298;2024-03-07T15:48:10;18.20;;;11.30;;
61487;SDS011;47351;53.326;-6.298;2024-03-07T15:51:03;19.70;;;10.60;;
61487;SDS011;47351;53.326;-6.298;2024-03-07T15:53:55;21.90;;;11.60;;
61487;SDS011;47351;53.326;-6.298;2024-03-07T15:56:52;18.90;;;11.20;;
61487;SDS011;47351;53.326;-6.298;2024-03-07T16:00:01;20.40;;;10.60;;
61487;SDS011;47351;53.326;-6.298;2024-03-07T16:03:12;18.60;;;10.60;;
61487;SDS011;47351;53.326;-6.298;2024-03-07T16:06:22;22.00;;;10.80;;
61487;SDS011;47351;53.326;-6.298;2024-03-07T16:09:12;17.30;;;10.30;;
61487;SDS011;47351;53.326;-6.298;2024-03-07T16:12:30;19.80;;;10.70;;
61487;SDS011;47351;53.326;-6.298;2024-03-07T16:15:29;24.50;;;11.90;;
61487;SDS011;47351;53.326;-6.298;2024-03-07T16:22:00;20.70;;;11.00;;
61487;SDS011;47351;53.326;-6.298;2024-03-07T16:25:07;17.00;;;10.40;;
61487;SDS011;47351;53.326;-6.298;2024-03-07T16:28:18;20.60;;;11.30;;
61487;SDS011;47351;53.326;-6.298;2024-03-07T16:31:15;20.30;;;11.10;;
61487;SDS011;47351;53.326;-6.298;2024-03-07T16:34:15;22.20;;;11.60;;
61487;SDS011;47351;53.326;-6.298;2024-03-07T16:37:25;23.30;;;12.20;;
61487;SDS011;47351;53.326;-6.298;2024-03-07T16:40:35;22.80;;;11.80;;
61487;SDS011;47351;53.326;-6.298;2024-03-07T16:43:51;21.00;;;12.50;;
61487;SDS011;47351;53.326;-6.298;2024-03-07T16:47:01;22.30;;;12.30;;
61487;SDS011;47351;53.326;-6.298;2024-03-07T16:50:11;21.90;;;12.20;;
61487;SDS011;47351;53.326;-6.298;2024-03-07T16:53:13;25.40;;;12.80;;
61487;SDS011;47351;53.326;-6.298;2024-03-07T16:56:04;23.00;;;12.80;;
61487;SDS011;47351;53.326;-6.298;2024-03-07T16:58:55;32.10;;;15.60;;
61487;SDS011;47351;53.326;-6.298;2024-03-07T17:01:56;35.30;;;17.30;;
61487;SDS011;47351;53.326;-6.298;2024-03-07T17:04:45;39.30;;;19.10;;
61487;SDS011;47351;53.326;-6.298;2024-03-07T17:07:35;35.90;;;19.60;;
61487;SDS011;47351;53.326;-6.298;2024-03-07T17:10:39;35.80;;;19.40;;
61487;SDS011;47351;53.326;-6.298;2024-03-07T17:13:47;33.80;;;19.00;;
61487;SDS011;47351;53.326;-6.298;2024-03-07T17:16:57;31.70;;;17.80;;
61487;SDS011;47351;53.326;-6.298;2024-03-07T17:20:07;33.20;;;18.30;;
61487;SDS011;47351;53.326;-6.298;2024-03-07T17:23:11;36.60;;;18.20;;
61487;SDS011;47351;53.326;-6.298;2024-03-07T17:26:02;34.50;;;18.60;;
61487;SDS011;47351;53.326;-6.298;2024-03-07T17:29:12;33.70;;;20.50;;
61487;SDS011;47351;53.326;-6.298;2024-03-07T17:32:22;35.50;;;20.60;;
61487;SDS011;47351;53.326;-6.298;2024-03-07T17:35:32;32.10;;;19.80;;
61487;SDS011;47351;53.326;-6.298;2024-03-07T17:38:25;33.60;;;18.90;;
61487;SDS011;47351;53.326;-6.298;2024-03-07T17:41:19;34.90;;;20.60;;
61487;SDS011;47351;53.326;-6.298;2024-03-07T17:44:10;33.50;;;19.60;;
61487;SDS011;47351;53.326;-6.298;2024-03-07T17:47:05;32.80;;;20.60;;
61487;SDS011;47351;53.326;-6.298;2024-03-07T17:49:58;34.20;;;19.50;;
61487;SDS011;47351;53.326;-6.298;2024-03-07T17:52:54;33.60;;;19.40;;
61487;SDS011;47351;53.326;-6.298;2024-03-07T17:55:45;30.50;;;17.50;;
61487;SDS011;47351;53.326;-6.298;2024-03-07T17:58:55;35.10;;;19.40;;